Time;durP1;ratioP1;P1;durP2;ratioP2;P2;SDS_P1;SDS_P2;PMS_P1;PMS_P2;Temp;Humidity;BMP_temperature;BMP_pressure;BME280_temperature;BME280_humidity;BME280_pressure;Samples;Min_cycle;Max_cycle;Signal;HPM_P1;HPM_P2
2023/05/28 04:32:44;;;;;;;12.40;5.40;;;;;;;8.74;80.26;96695.81;2085788;28;20558;-56
2023/05/28 04:33:46;;;;;;;13.13;5.75;;;;;;;8.73;80.62;96696.72;2078964;28;20224;-58
2023/05/28 07:31:32;;;;;;;14.38;4.22;;;;;;;18.47;51.88;96710.28;2092561;27;20618;-57
2023/05/28 07:33:44;;;;;;;14.23;5.00;;;;;;;18.43;51.11;96722.06;2111852;27;20532;-58
2023/05/28 07:35:54;;;;;;;10.50;3.60;;;;;;;18.62;51.42;96725.97;2092409;27;20550;-58
2023/05/28 07:38:07;;;;;;;16.50;4.72;;;;;;;19.03;49.42;96722.81;2088689;28;20573;-60
2023/05/28 07:40:22;;;;;;;13.13;4.20;;;;;;;19.03;48.22;96728.13;2100293;27;20553;-58
2023/05/28 07:42:37;;;;;;;16.55;4.60;;;;;;;19.07;49.64;96726.06;2101033;27;20573;-58
2023/05/28 07:44:54;;;;;;;19.02;4.45;;;;;;;18.72;48.61;96730.44;2083802;28;20564;-58
2023/05/28 07:47:13;;;;;;;23.77;4.85;;;;;;;18.56;49.18;96727.28;2084564;28;20564;-58
2023/05/28 07:49:37;;;;;;;12.57;4.05;;;;;;;19.04;49.73;96721.00;2094351;27;20564;-57
2023/05/28 07:52:04;;;;;;;16.45;4.03;;;;;;;19.11;48.61;96726.66;2100303;27;20546;-58
2023/05/28 07:54:39;;;;;;;17.05;5.70;;;;;;;18.93;49.18;96727.13;2083713;28;20564;-58
2023/05/28 07:55:40;;;;;;;13.57;4.43;;;;;;;19.21;48.09;96728.47;2082704;28;20199;-58
2023/05/28 07:58:05;;;;;;;10.30;3.67;;;;;;;18.77;48.07;96724.81;2081737;28;20519;-57
2023/05/28 07:59:07;;;;;;;16.13;4.43;;;;;;;19.29;48.17;96727.88;2086850;28;20289;-57
2023/05/28 08:01:42;;;;;;;9.73;4.65;;;;;;;19.69;47.44;96716.78;2112467;27;20940;-58
2023/05/28 08:02:44;;;;;;;11.55;4.15;;;;;;;19.73;47.74;96730.59;2115269;28;20667;-57
2023/05/28 08:05:18;;;;;;;10.75;4.80;;;;;;;19.49;48.05;96728.94;2099672;27;20572;-58
2023/05/28 08:06:20;;;;;;;14.95;5.13;;;;;;;19.63;48.29;96729.63;2095503;28;20253;-58
2023/05/28 08:07:22;;;;;;;18.85;4.57;;;;;;;19.96;48.23;96720.81;2093675;28;20196;-58
2023/05/28 08:09:51;;;;;;;17.05;5.00;;;;;;;19.75;47.82;96712.75;2099122;27;20557;-57
2023/05/28 08:10:53;;;;;;;15.55;4.07;;;;;;;19.85;47.14;96728.81;2095698;28;20288;-57
2023/05/28 08:11:54;;;;;;;16.52;5.30;;;;;;;19.94;47.80;96729.88;2098484;28;20198;-57
2023/05/28 08:12:56;;;;;;;17.67;4.82;;;;;;;19.58;47.28;96720.25;2097364;28;20747;-58
2023/05/28 08:15:32;;;;;;;11.30;4.25;;;;;;;19.83;47.49;96712.16;2100535;27;20609;-57
2023/05/28 08:16:34;;;;;;;17.23;4.28;;;;;;;19.74;47.78;96722.53;2098766;28;20196;-56
2023/05/28 08:17:36;;;;;;;14.75;3.80;;;;;;;19.94;47.36;96724.56;2099059;28;20322;-57
2023/05/28 08:18:39;;;;;;;13.25;4.60;;;;;;;19.76;48.10;96714.44;2097159;28;20194;-57
2023/05/28 08:19:40;;;;;;;13.68;4.50;;;;;;;19.83;47.66;96718.34;2088733;28;20399;-58
2023/05/28 08:22:42;;;;;;;15.45;4.85;;;;;;;20.62;47.76;96721.59;2084009;28;20585;-57
2023/05/28 08:23:44;;;;;;;9.38;3.80;;;;;;;20.15;46.77;96714.84;2079367;28;20202;-57
2023/05/28 08:24:45;;;;;;;9.98;4.35;;;;;;;20.47;46.53;96713.97;2075271;28;20315;-59
2023/05/28 08:25:47;;;;;;;14.48;4.65;;;;;;;20.47;47.80;96705.19;2078549;28;21121;-57
2023/05/28 08:26:48;;;;;;;11.15;4.88;;;;;;;20.38;47.18;96717.41;2080074;28;20207;-56
2023/05/28 08:27:50;;;;;;;9.68;4.28;;;;;;;20.34;47.89;96705.34;2077570;28;20668;-56
2023/05/28 08:28:51;;;;;;;16.27;5.55;;;;;;;20.77;46.63;96712.38;2078926;28;20203;-56
2023/05/28 08:29:52;;;;;;;16.60;4.53;;;;;;;20.51;47.70;96714.56;2075480;28;20343;-56
2023/05/28 08:30:54;;;;;;;13.70;4.18;;;;;;;20.23;47.66;96716.88;2076736;28;20561;-56
2023/05/28 08:31:57;;;;;;;9.88;3.40;;;;;;;20.36;47.85;96709.56;2087442;28;20198;-57
2023/05/28 08:32:59;;;;;;;11.00;4.32;;;;;;;20.58;47.94;96710.41;2087473;28;20284;-56
2023/05/28 08:34:00;;;;;;;10.73;4.28;;;;;;;20.49;46.83;96711.19;2078751;28;20208;-56
2023/05/28 08:36:56;;;;;;;18.98;4.90;;;;;;;20.26;47.86;96710.47;2098291;27;20564;-59
2023/05/28 08:37:58;;;;;;;14.35;4.50;;;;;;;19.71;48.73;96720.13;2097136;28;20339;-59
2023/05/28 08:38:59;;;;;;;12.02;3.80;;;;;;;19.79;48.79;96700.13;2099178;28;20508;-58
2023/05/28 08:40:02;;;;;;;8.38;4.40;;;;;;;19.59;49.17;96702.56;2083466;28;20226;-59
2023/05/28 08:41:05;;;;;;;14.63;5.10;;;;;;;20.15;49.62;96706.03;2080899;28;20198;-59
2023/05/28 08:42:07;;;;;;;18.67;4.78;;;;;;;20.69;49.47;96701.56;2083059;28;20195;-60
2023/05/28 08:43:08;;;;;;;12.32;5.05;;;;;;;21.08;49.69;96696.47;2083140;28;20201;-60
2023/05/28 08:44:10;;;;;;;13.18;4.00;;;;;;;21.41;48.69;96698.97;2081990;28;20273;-59
2023/05/28 08:45:12;;;;;;;8.82;4.07;;;;;;;21.24;47.66;96695.97;2074944;28;20250;-59
2023/05/28 08:46:14;;;;;;;13.98;4.90;;;;;;;21.02;49.07;96700.50;2072925;28;20229;-60
2023/05/28 08:47:17;;;;;;;16.23;5.63;;;;;;;21.41;48.50;96699.81;2073924;28;20201;-59
2023/05/28 08:48:20;;;;;;;13.60;5.15;;;;;;;21.66;48.02;96700.31;2072736;28;20294;-59
2023/05/28 08:49:41;;;;;;;16.13;6.05;;;;;;;21.63;47.11;96695.31;2071766;28;20205;-59
2023/05/28 08:50:47;;;;;;;13.30;4.05;;;;;;;21.48;46.81;96697.47;2074862;28;20205;-59
2023/05/28 08:51:52;;;;;;;15.07;5.28;;;;;;;21.44;47.38;96693.41;2070225;28;20226;-60
2023/05/28 08:52:56;;;;;;;143.20;83.78;;;;;;;21.88;48.50;96685.13;2073422;28;20194;-60
2023/05/28 08:53:59;;;;;;;19.45;9.52;;;;;;;22.07;46.63;96692.25;2073446;28;21087;-59
2023/05/28 08:55:01;;;;;;;14.77;7.10;;;;;;;22.18;47.11;96689.47;2072117;28;20221;-60
2023/05/28 08:56:03;;;;;;;13.88;4.95;;;;;;;22.56;47.35;96686.97;2074085;28;20259;-59
2023/05/28 08:57:05;;;;;;;11.80;5.15;;;;;;;22.81;46.85;96686.34;2074705;28;20778;-59
2023/05/28 08:58:07;;;;;;;15.80;5.38;;;;;;;22.80;47.00;96686.50;2073506;28;20202;-58
2023/05/28 08:59:10;;;;;;;27.40;4.60;;;;;;;22.94;46.63;96693.19;2074883;28;20205;-57
2023/05/28 09:00:12;;;;;;;15.68;4.72;;;;;;;23.05;46.11;96684.19;2073976;28;20248;-57
2023/05/28 09:01:14;;;;;;;17.40;4.88;;;;;;;23.25;46.49;96685.81;2073778;28;20201;-58
2023/05/28 09:02:16;;;;;;;9.85;4.35;;;;;;;23.36;45.82;96690.09;2075112;28;20684;-58
2023/05/28 09:03:17;;;;;;;21.15;4.35;;;;;;;23.28;46.64;96695.34;2075468;28;20198;-58
2023/05/28 09:04:19;;;;;;;13.85;5.00;;;;;;;23.34;47.07;96696.56;2074484;28;20682;-58
2023/05/28 09:05:20;;;;;;;15.05;4.80;;;;;;;22.95;44.87;96684.22;2074423;28;20673;-58
2023/05/28 09:06:24;;;;;;;16.38;4.88;;;;;;;22.87;44.25;96692.94;2071780;28;20539;-58
2023/05/28 09:07:26;;;;;;;14.15;4.50;;;;;;;23.28;42.70;96687.34;2074198;28;20205;-58
2023/05/28 09:08:27;;;;;;;13.23;4.05;;;;;;;23.24;43.01;96697.44;2073388;28;20201;-58
2023/05/28 09:09:29;;;;;;;16.90;4.85;;;;;;;23.30;43.76;96693.38;2074032;28;20201;-58
2023/05/28 09:10:32;;;;;;;19.13;4.97;;;;;;;23.33;43.70;96687.75;2074574;28;20201;-58
2023/05/28 09:11:34;;;;;;;14.02;4.63;;;;;;;23.11;43.97;96686.28;2075255;28;20200;-58
2023/05/28 09:12:37;;;;;;;11.82;4.70;;;;;;;23.46;44.79;96688.25;2072002;28;20196;-58
2023/05/28 09:13:45;;;;;;;13.57;4.65;;;;;;;22.82;43.21;96690.69;2076499;28;20203;-58
2023/05/28 09:14:50;;;;;;;10.95;4.50;;;;;;;22.95;44.08;96687.69;2069322;28;20277;-58
2023/05/28 09:15:52;;;;;;;17.00;5.47;;;;;;;23.33;44.36;96695.72;2072605;28;20199;-58
2023/05/28 09:16:54;;;;;;;23.85;5.40;;;;;;;23.57;44.23;96681.84;2076110;28;20603;-58
2023/05/28 09:17:59;;;;;;;9.80;4.53;;;;;;;22.69;44.26;96687.50;2071862;28;20203;-57
2023/05/28 09:19:05;;;;;;;13.82;4.35;;;;;;;22.40;44.98;96692.84;2073140;28;20237;-58
2023/05/28 09:20:11;;;;;;;16.30;5.00;;;;;;;22.86;44.73;96685.91;2073439;28;20363;-58
2023/05/28 09:21:14;;;;;;;13.25;4.38;;;;;;;23.06;44.15;96676.06;2081624;28;20607;-58
2023/05/28 09:22:15;;;;;;;8.45;3.92;;;;;;;23.10;44.00;96684.59;2072781;28;20624;-58
2023/05/28 09:23:20;;;;;;;11.35;3.72;;;;;;;23.29;44.77;96684.53;2072988;28;20553;-58
2023/05/28 09:24:26;;;;;;;15.05;4.40;;;;;;;22.21;43.98;96678.56;2069400;28;20211;-58
2023/05/28 09:25:28;;;;;;;13.40;4.47;;;;;;;22.47;45.42;96681.53;2071871;28;20199;-58
2023/05/28 09:26:30;;;;;;;10.10;4.00;;;;;;;22.42;41.81;96680.25;2072468;28;20202;-59
2023/05/28 09:27:33;;;;;;;10.85;4.50;;;;;;;22.63;42.56;96674.78;2074195;28;20578;-58
2023/05/28 09:28:35;;;;;;;17.33;4.68;;;;;;;22.52;44.38;96669.63;2074065;28;20199;-58
2023/05/28 09:29:36;;;;;;;13.07;5.35;;;;;;;22.57;43.33;96680.66;2073535;28;20304;-58
2023/05/28 09:30:38;;;;;;;13.60;5.35;;;;;;;22.73;45.35;96672.06;2073967;28;20209;-60
2023/05/28 09:31:39;;;;;;;15.63;5.03;;;;;;;23.47;45.88;96683.75;2069766;28;20790;-58
2023/05/28 09:32:41;;;;;;;16.08;4.65;;;;;;;23.71;44.55;96677.03;2070710;28;20206;-58
2023/05/28 09:33:44;;;;;;;19.77;4.78;;;;;;;23.27;40.80;96681.19;2074142;28;20645;-58
2023/05/28 09:34:48;;;;;;;18.80;4.68;;;;;;;23.20;42.25;96685.41;2072510;28;20222;-58
2023/05/28 09:36:01;;;;;;;8.40;3.95;;;;;;;23.09;41.17;96675.75;2073438;28;20689;-59
2023/05/28 09:37:04;;;;;;;14.68;4.20;;;;;;;23.55;40.63;96680.34;2074830;28;20217;-58
2023/05/28 09:38:11;;;;;;;10.13;3.85;;;;;;;23.92;41.03;96660.75;2081180;28;20853;-59
2023/05/28 09:39:12;;;;;;;13.15;4.38;;;;;;;23.39;41.23;96673.84;2073505;28;20203;-58
2023/05/28 09:40:16;;;;;;;12.55;5.18;;;;;;;23.09;42.60;96674.91;2068988;28;20226;-59
2023/05/28 09:41:22;;;;;;;10.80;3.63;;;;;;;22.92;43.21;96677.34;2073381;28;20192;-59
2023/05/28 09:42:24;;;;;;;18.30;4.65;;;;;;;23.30;44.37;96680.06;2073867;28;20198;-58
2023/05/28 09:43:29;;;;;;;16.25;4.75;;;;;;;23.52;42.71;96677.97;2073407;28;20237;-58
2023/05/28 09:44:31;;;;;;;15.98;4.65;;;;;;;22.83;42.31;96667.59;2073675;28;20250;-58
2023/05/28 09:45:36;;;;;;;12.25;4.63;;;;;;;22.40;44.20;96675.09;2073821;28;21152;-59
2023/05/28 09:46:37;;;;;;;15.80;4.90;;;;;;;22.36;43.39;96668.34;2072892;28;20255;-58
2023/05/28 09:47:46;;;;;;;12.70;4.47;;;;;;;22.16;43.88;96673.66;2071669;28;20689;-57
2023/05/28 09:48:48;;;;;;;14.13;4.10;;;;;;;22.26;44.21;96678.13;2065956;28;20207;-58
2023/05/28 09:49:49;;;;;;;18.50;5.00;;;;;;;21.73;44.45;96671.41;2067965;28;20729;-57
2023/05/28 09:50:52;;;;;;;37.83;21.27;;;;;;;22.57;44.59;96678.84;2064300;28;20199;-57
2023/05/28 09:51:57;;;;;;;50.58;32.10;;;;;;;23.00;45.95;96672.13;2066603;28;20260;-58
2023/05/28 09:52:59;;;;;;;21.60;12.43;;;;;;;23.46;46.20;96674.06;2067922;28;20198;-59
2023/05/28 09:54:05;;;;;;;11.43;4.75;;;;;;;23.60;45.96;96673.59;2064980;28;20199;-58
2023/05/28 09:55:07;;;;;;;14.23;5.70;;;;;;;23.48;47.71;96678.25;2067480;28;20256;-58
2023/05/28 09:56:10;;;;;;;17.40;4.32;;;;;;;23.77;48.25;96677.25;2068363;28;20199;-58
2023/05/28 09:57:14;;;;;;;16.80;4.60;;;;;;;23.80;45.71;96681.44;2067244;28;20252;-58
2023/05/28 09:58:16;;;;;;;13.65;3.85;;;;;;;24.15;41.27;96668.31;2068258;28;20202;-57
2023/05/28 09:59:19;;;;;;;9.57;3.85;;;;;;;23.88;42.19;96670.03;2067090;28;20198;-57
2023/05/28 10:00:26;;;;;;;11.13;3.90;;;;;;;23.29;43.64;96675.72;2068706;28;20195;-57
2023/05/28 10:01:38;;;;;;;12.32;4.65;;;;;;;22.97;44.78;96675.09;2066229;28;20194;-57
2023/05/28 10:03:17;;;;;;;17.00;4.45;;;;;;;23.80;44.47;96676.13;2064554;28;20630;-58
2023/05/28 10:04:28;;;;;;;12.10;4.88;;;;;;;23.70;43.71;96675.34;2068226;28;20199;-57
2023/05/28 10:05:32;;;;;;;16.52;4.50;;;;;;;24.10;43.94;96682.13;2068383;28;20332;-57
2023/05/28 10:06:35;;;;;;;13.23;4.38;;;;;;;23.97;43.17;96666.47;2068374;28;20204;-57
2023/05/28 10:07:38;;;;;;;12.73;3.92;;;;;;;24.08;41.85;96676.09;2067441;28;20212;-57
2023/05/28 10:08:40;;;;;;;9.60;3.88;;;;;;;24.01;43.71;96675.88;2067493;28;20208;-57
2023/05/28 10:09:43;;;;;;;10.50;4.25;;;;;;;24.31;41.75;96681.78;2068051;28;20634;-57
2023/05/28 10:10:51;;;;;;;11.55;4.90;;;;;;;23.25;40.11;96661.84;2065358;28;20203;-56
2023/05/28 10:12:10;;;;;;;10.57;4.05;;;;;;;23.45;43.48;96681.22;2066504;28;20419;-56
2023/05/28 10:13:12;;;;;;;14.10;4.03;;;;;;;23.99;41.02;96677.84;2068537;28;20208;-57
2023/05/28 10:14:13;;;;;;;13.75;3.50;;;;;;;24.52;42.51;96683.28;2068318;28;20672;-56
2023/05/28 10:15:16;;;;;;;13.68;3.85;;;;;;;24.54;40.32;96675.97;2066159;28;20294;-57
2023/05/28 10:16:19;;;;;;;12.90;3.80;;;;;;;24.85;42.06;96675.53;2067862;28;20648;-57
2023/05/28 10:17:21;;;;;;;9.43;4.32;;;;;;;25.04;40.63;96686.00;2068160;28;20219;-57
2023/05/28 10:18:24;;;;;;;13.20;4.18;;;;;;;24.28;38.86;96674.94;2067883;28;20205;-57
2023/05/28 10:19:28;;;;;;;10.27;4.40;;;;;;;23.10;39.94;96682.75;2065218;28;20611;-56
2023/05/28 10:20:30;;;;;;;17.30;3.90;;;;;;;22.75;42.92;96678.94;2064232;28;20212;-58
2023/05/28 10:21:32;;;;;;;13.35;4.20;;;;;;;22.81;42.62;96682.84;2068210;28;20242;-56
2023/05/28 10:22:34;;;;;;;15.13;4.80;;;;;;;23.23;44.21;96684.28;2067045;28;20582;-56
2023/05/28 10:23:36;;;;;;;14.82;4.35;;;;;;;23.15;40.87;96693.00;2065725;28;20204;-56
2023/05/28 10:24:38;;;;;;;12.45;4.13;;;;;;;23.29;43.35;96673.88;2065935;28;20338;-57
2023/05/28 10:25:40;;;;;;;12.02;3.60;;;;;;;23.04;41.85;96678.00;2064240;28;20199;-56
2023/05/28 10:26:42;;;;;;;11.20;4.80;;;;;;;22.67;43.08;96676.16;2065138;28;20195;-56
2023/05/28 10:27:45;;;;;;;9.25;3.92;;;;;;;23.60;44.09;96684.25;2076204;28;20255;-57
2023/05/28 10:28:56;;;;;;;16.45;4.43;;;;;;;24.07;43.86;96682.41;2073076;28;20283;-57
2023/05/28 10:30:02;;;;;;;15.13;4.88;;;;;;;23.80;43.05;96682.28;2065673;28;20224;-57
2023/05/28 10:31:06;;;;;;;13.55;4.43;;;;;;;24.11;44.00;96681.09;2068558;28;20295;-57
2023/05/28 10:32:08;;;;;;;10.45;3.85;;;;;;;23.59;40.51;96685.22;2068219;28;20294;-56
2023/05/28 10:33:15;;;;;;;15.15;4.63;;;;;;;23.41;41.39;96681.66;2063947;28;20205;-57
2023/05/28 10:34:17;;;;;;;13.48;4.25;;;;;;;23.06;42.54;96681.38;2064910;28;20302;-57
2023/05/28 10:35:19;;;;;;;20.33;4.80;;;;;;;23.83;42.90;96680.31;2068994;28;20203;-57
2023/05/28 10:36:21;;;;;;;11.20;3.60;;;;;;;23.43;41.71;96677.88;2067947;28;20232;-57
2023/05/28 10:37:23;;;;;;;10.10;3.55;;;;;;;24.16;42.64;96675.31;2063846;28;20567;-57
2023/05/28 10:38:25;;;;;;;9.95;4.55;;;;;;;24.72;42.71;96676.81;2068221;28;20197;-57
2023/05/28 10:39:26;;;;;;;16.77;4.00;;;;;;;25.13;41.67;96684.22;2067023;28;20195;-58
2023/05/28 10:40:28;;;;;;;10.48;4.38;;;;;;;25.41;42.04;96674.19;2066409;28;20220;-57
2023/05/28 10:41:33;;;;;;;12.18;4.60;;;;;;;25.56;41.22;96674.41;2065776;28;20284;-59
2023/05/28 10:42:42;;;;;;;11.05;4.68;;;;;;;23.86;39.08;96683.50;2065815;28;20673;-57
2023/05/28 10:43:47;;;;;;;11.07;4.32;;;;;;;23.85;40.99;96686.34;2066565;28;20205;-57
2023/05/28 10:45:11;;;;;;;17.85;4.22;;;;;;;24.73;41.17;96691.78;2066613;28;20338;-59
2023/05/28 10:46:17;;;;;;;9.27;4.20;;;;;;;25.25;41.39;96677.59;2069183;28;20606;-57
2023/05/28 10:47:19;;;;;;;38.28;23.85;;;;;;;25.72;40.59;96686.13;2064148;28;20210;-58
2023/05/28 10:48:21;;;;;;;124.72;78.07;;;;;;;26.07;40.00;96674.38;2064210;28;20210;-58
2023/05/28 10:49:23;;;;;;;48.35;30.80;;;;;;;26.17;39.98;96682.25;2067474;28;20555;-57
2023/05/28 10:50:25;;;;;;;19.73;8.65;;;;;;;26.44;40.06;96672.22;2064105;28;20282;-58
2023/05/28 10:52:02;;;;;;;9.23;4.43;;;;;;;26.16;38.38;96679.75;2067463;28;20735;-58
2023/05/28 10:53:06;;;;;;;16.10;5.03;;;;;;;25.52;37.87;96673.06;2066912;28;20203;-58
2023/05/28 10:54:35;;;;;;;12.70;4.35;;;;;;;25.13;37.56;96678.88;2065606;28;20252;-57
2023/05/28 10:55:48;;;;;;;9.98;4.65;;;;;;;25.78;37.43;96680.13;2068013;28;20225;-58
2023/05/28 10:57:08;;;;;;;14.00;3.95;;;;;;;26.16;37.82;96677.91;2069787;28;20225;-58
2023/05/28 10:58:11;;;;;;;14.82;4.00;;;;;;;24.93;36.61;96671.06;2068188;28;20300;-58
2023/05/28 10:59:16;;;;;;;8.93;4.20;;;;;;;25.33;38.52;96673.28;2067382;28;20230;-57
2023/05/28 11:00:24;;;;;;;8.90;3.70;;;;;;;26.14;37.25;96671.03;2055399;28;20772;-58
2023/05/28 11:01:26;;;;;;;10.63;3.85;;;;;;;26.29;36.66;96672.03;2067882;28;20281;-58
2023/05/28 11:02:32;;;;;;;10.38;3.65;;;;;;;26.65;36.86;96676.22;2066981;28;20628;-59
2023/05/28 11:03:42;;;;;;;15.32;4.28;;;;;;;27.08;37.03;96674.16;2067297;28;20257;-59
2023/05/28 11:04:44;;;;;;;12.40;3.90;;;;;;;25.51;37.30;96650.00;2063427;28;20230;-58
2023/05/28 11:05:46;;;;;;;11.73;4.55;;;;;;;24.82;37.99;96671.34;2065036;28;20199;-58
2023/05/28 11:06:48;;;;;;;13.93;4.00;;;;;;;25.62;38.58;96658.72;2064038;28;20199;-58
2023/05/28 11:07:49;;;;;;;11.40;3.92;;;;;;;26.12;37.80;96671.22;2064248;28;20606;-58
2023/05/28 11:08:51;;;;;;;11.27;4.68;;;;;;;25.55;37.25;96669.22;2066688;28;20245;-58
2023/05/28 11:09:52;;;;;;;14.43;4.50;;;;;;;26.27;36.88;96675.88;2066677;28;20222;-58
2023/05/28 11:10:55;;;;;;;10.65;3.72;;;;;;;25.44;36.02;96673.00;2067075;28;20265;-58
2023/05/28 11:12:01;;;;;;;14.15;4.15;;;;;;;25.91;37.37;96677.84;2068002;28;20203;-58
2023/05/28 11:13:03;;;;;;;17.08;4.25;;;;;;;25.33;36.92;96668.78;2067021;28;20233;-59
2023/05/28 11:14:04;;;;;;;10.88;3.45;;;;;;;23.60;38.16;96670.06;2063610;28;20203;-58
2023/05/28 11:15:08;;;;;;;9.20;4.68;;;;;;;23.71;38.42;96674.34;2067403;28;20222;-58
2023/05/28 11:16:11;;;;;;;10.27;3.70;;;;;;;25.00;38.51;96668.63;2069353;28;20554;-61
2023/05/28 11:17:13;;;;;;;14.10;4.05;;;;;;;25.52;38.43;96665.03;2065620;28;20195;-61
2023/05/28 11:18:15;;;;;;;12.73;4.68;;;;;;;26.31;37.76;96669.19;2063607;28;20215;-62
2023/05/28 11:19:16;;;;;;;16.42;4.45;;;;;;;26.81;36.51;96654.78;2067282;28;20198;-62
2023/05/28 11:20:27;;;;;;;8.70;4.28;;;;;;;25.23;37.28;96654.69;2063570;28;20210;-61
2023/05/28 11:21:29;;;;;;;9.40;4.30;;;;;;;26.33;36.95;96665.34;2064998;28;20213;-61
2023/05/28 11:22:35;;;;;;;9.77;3.88;;;;;;;26.81;36.96;96662.00;2067227;28;20199;-61
2023/05/28 11:23:37;;;;;;;8.98;3.38;;;;;;;27.13;36.52;96665.59;2066447;28;20341;-61
2023/05/28 11:24:59;;;;;;;17.15;4.97;;;;;;;26.10;37.16;96672.38;2068129;28;20226;-61
2023/05/28 11:26:00;;;;;;;14.57;4.60;;;;;;;25.09;37.47;96661.50;2066656;28;20595;-61
2023/05/28 11:27:21;;;;;;;13.75;4.60;;;;;;;23.92;38.17;96666.94;2066947;28;20199;-61
2023/05/28 11:28:23;;;;;;;12.30;4.63;;;;;;;23.44;38.45;96666.22;2067072;28;20237;-60
2023/05/28 11:29:24;;;;;;;15.00;4.20;;;;;;;23.38;39.15;96663.31;2066037;28;20210;-61
2023/05/28 11:30:26;;;;;;;8.35;4.03;;;;;;;23.91;39.64;96651.06;2065684;28;20241;-60
2023/05/28 11:31:27;;;;;;;24.10;14.90;;;;;;;24.67;39.86;96664.91;2065591;28;20205;-60
2023/05/28 11:32:33;;;;;;;15.70;6.43;;;;;;;24.26;39.07;96628.91;2065195;28;20611;-60
2023/05/28 11:33:34;;;;;;;12.75;4.55;;;;;;;23.84;39.75;96664.16;2065282;28;20232;-60
2023/05/28 11:34:39;;;;;;;12.77;4.55;;;;;;;23.90;40.63;96654.72;2066413;28;20372;-61
2023/05/28 11:35:41;;;;;;;10.25;4.00;;;;;;;24.05;40.93;96657.69;2067114;28;20197;-60
2023/05/28 11:36:43;;;;;;;13.45;4.75;;;;;;;24.16;39.94;96656.66;2064070;28;20669;-60
2023/05/28 11:37:45;;;;;;;12.75;4.45;;;;;;;24.49;39.21;96659.56;2067073;28;20208;-60
2023/05/28 11:38:47;;;;;;;11.00;4.85;;;;;;;24.43;38.42;96666.38;2067605;28;20618;-61
2023/05/28 11:39:50;;;;;;;12.38;4.72;;;;;;;24.51;38.69;96661.09;2066133;28;20226;-61
2023/05/28 11:41:00;;;;;;;14.15;3.90;;;;;;;24.89;40.13;96660.88;2066673;28;20205;-60
2023/05/28 11:42:01;;;;;;;12.00;4.65;;;;;;;25.89;39.69;96657.59;2066922;28;20292;-60
2023/05/28 11:43:04;;;;;;;13.63;4.32;;;;;;;26.11;38.23;96650.81;2065732;28;20654;-60
2023/05/28 11:44:26;;;;;;;13.70;4.38;;;;;;;26.56;38.66;96653.97;2066134;28;20252;-60
2023/05/28 11:45:27;;;;;;;14.45;4.70;;;;;;;27.16;39.02;96658.06;2066427;28;20233;-61
2023/05/28 11:46:30;;;;;;;10.15;4.30;;;;;;;26.94;37.07;96651.59;2066910;28;20658;-60
2023/05/28 11:47:33;;;;;;;9.38;4.18;;;;;;;27.15;37.09;96660.91;2067597;28;20194;-60
2023/05/28 11:48:37;;;;;;;9.57;3.97;;;;;;;26.01;37.12;96650.91;2067527;28;20194;-61
2023/05/28 11:49:40;;;;;;;8.40;3.28;;;;;;;25.05;36.73;96644.09;2065724;28;20769;-60
2023/05/28 11:50:41;;;;;;;10.00;3.75;;;;;;;25.42;36.45;96649.13;2066065;28;20222;-60
2023/05/28 11:51:43;;;;;;;13.90;4.35;;;;;;;24.73;38.63;96653.59;2066264;28;20661;-60
2023/05/28 11:52:45;;;;;;;9.00;4.28;;;;;;;25.67;38.62;96656.38;2067386;28;20202;-60
2023/05/28 11:53:47;;;;;;;10.57;4.15;;;;;;;26.34;38.17;96650.97;2065780;28;20349;-60
2023/05/28 11:54:54;;;;;;;11.77;4.03;;;;;;;26.59;37.64;96652.78;2066478;28;20678;-60
2023/05/28 11:55:55;;;;;;;15.35;4.70;;;;;;;27.26;36.90;96649.81;2067044;28;20273;-59
2023/05/28 11:56:56;;;;;;;12.05;5.07;;;;;;;25.82;38.04;96646.72;2066588;28;20213;-60
2023/05/28 11:58:00;;;;;;;13.45;4.82;;;;;;;25.70;39.48;96642.69;2065249;28;20238;-60
2023/05/28 11:59:02;;;;;;;12.60;4.70;;;;;;;26.35;38.98;96644.63;2065327;28;20658;-61
2023/05/28 12:00:11;;;;;;;13.30;4.10;;;;;;;26.40;38.28;96649.47;2065272;28;20222;-60
2023/05/28 12:01:16;;;;;;;16.25;4.82;;;;;;;26.30;38.39;96652.31;2067658;28;20587;-60
2023/05/28 12:02:18;;;;;;;11.65;4.40;;;;;;;26.50;39.34;96638.56;2067340;28;20190;-60
2023/05/28 12:03:20;;;;;;;12.07;4.45;;;;;;;26.22;37.58;96653.16;2067819;28;20202;-61
2023/05/28 12:04:25;;;;;;;8.30;3.75;;;;;;;26.24;38.68;96650.31;2066256;28;20757;-60
2023/05/28 12:05:27;;;;;;;26.23;14.77;;;;;;;26.61;37.57;96651.63;2066215;28;20250;-60
2023/05/28 12:06:35;;;;;;;14.73;6.47;;;;;;;26.44;36.41;96649.97;2063275;28;20250;-61
2023/05/28 12:07:47;;;;;;;41.72;26.67;;;;;;;27.24;37.68;96651.84;2065982;28;20663;-60
2023/05/28 12:08:48;;;;;;;27.30;17.45;;;;;;;27.75;37.77;96648.75;2065605;28;20374;-61
2023/05/28 12:10:05;;;;;;;23.30;13.05;;;;;;;28.21;36.81;96647.97;2067451;28;20226;-60
2023/05/28 12:11:09;;;;;;;15.55;4.85;;;;;;;27.94;37.05;96647.47;2065242;28;20253;-61
2023/05/28 12:12:15;;;;;;;15.30;4.43;;;;;;;28.26;36.19;96642.91;2066748;28;20292;-61
2023/05/28 12:13:16;;;;;;;14.93;4.40;;;;;;;28.04;36.90;96636.53;2067618;28;20194;-61
2023/05/28 12:14:18;;;;;;;11.02;4.07;;;;;;;28.38;37.77;96646.00;2068269;28;20213;-61
2023/05/28 12:15:24;;;;;;;10.65;4.18;;;;;;;27.85;36.71;96641.31;2067209;28;20213;-61
2023/05/28 12:16:26;;;;;;;10.05;4.35;;;;;;;26.85;38.48;96642.72;2067947;28;20292;-61
2023/05/28 12:17:36;;;;;;;10.95;4.45;;;;;;;28.02;38.10;96641.22;2066436;28;20642;-60
2023/05/28 12:18:42;;;;;;;10.75;4.15;;;;;;;28.67;36.54;96647.09;2065956;28;20674;-60
2023/05/28 12:19:43;;;;;;;12.45;3.75;;;;;;;28.86;36.33;96637.66;2065052;28;20265;-60
2023/05/28 12:20:45;;;;;;;10.35;4.22;;;;;;;28.19;36.70;96648.16;2066957;28;20566;-61
2023/05/28 12:21:46;;;;;;;20.73;5.30;;;;;;;28.36;37.68;96650.72;2068229;28;20294;-61
2023/05/28 12:23:01;;;;;;;11.15;3.83;;;;;;;28.92;36.16;96638.81;2067289;28;20210;-61
2023/05/28 12:24:18;;;;;;;13.15;4.20;;;;;;;27.72;36.61;96624.13;2067008;28;20206;-61
2023/05/28 12:25:19;;;;;;;11.35;4.65;;;;;;;27.58;37.14;96641.81;2064880;28;20288;-61
2023/05/28 12:26:22;;;;;;;9.32;4.63;;;;;;;27.37;36.89;96652.09;2063107;28;20206;-61
2023/05/28 12:27:24;;;;;;;17.35;4.22;;;;;;;27.03;37.58;96644.34;2063510;28;20260;-61
2023/05/28 12:28:25;;;;;;;14.40;4.25;;;;;;;27.50;37.67;96640.00;2064124;28;20209;-61
2023/05/28 12:29:27;;;;;;;11.82;4.90;;;;;;;27.53;36.90;96639.69;2062262;28;20675;-61
2023/05/28 12:30:31;;;;;;;12.05;4.82;;;;;;;27.80;37.38;96648.25;2068353;28;20594;-61
2023/05/28 12:31:32;;;;;;;10.90;4.40;;;;;;;28.34;37.34;96642.00;2063088;28;20230;-61
2023/05/28 12:32:34;;;;;;;9.25;4.25;;;;;;;28.72;36.74;96646.56;2063492;28;20330;-62
2023/05/28 12:33:36;;;;;;;10.80;4.35;;;;;;;28.81;35.57;96637.38;2066534;28;20605;-61
2023/05/28 12:34:38;;;;;;;11.35;4.53;;;;;;;28.70;36.20;96638.69;2066539;28;20301;-61
2023/05/28 12:35:39;;;;;;;7.63;3.83;;;;;;;29.01;35.91;96640.38;2067821;28;20198;-61
2023/05/28 12:36:41;;;;;;;12.02;4.35;;;;;;;28.62;35.45;96636.03;2066916;28;20329;-61
2023/05/28 12:37:43;;;;;;;17.42;4.88;;;;;;;28.29;36.73;96641.69;2067335;28;20203;-61
2023/05/28 12:38:44;;;;;;;11.90;4.97;;;;;;;28.48;36.19;96640.34;2066034;28;20295;-61
2023/05/28 12:39:46;;;;;;;16.53;4.53;;;;;;;28.95;35.83;96633.03;2062841;28;21097;-61
2023/05/28 12:40:47;;;;;;;9.20;4.37;;;;;;;29.37;34.32;96639.66;2063039;28;20437;-61
2023/05/28 12:41:49;;;;;;;14.67;4.50;;;;;;;29.53;34.03;96635.06;2066139;28;20417;-61
2023/05/28 12:42:51;;;;;;;12.80;5.20;;;;;;;29.65;34.11;96637.09;2066610;28;20539;-61
2023/05/28 12:43:52;;;;;;;9.23;4.07;;;;;;;29.87;34.53;96637.13;2065826;28;20482;-62
2023/05/28 12:44:54;;;;;;;7.67;4.10;;;;;;;29.90;35.29;96626.00;2065060;28;20214;-62
2023/05/28 12:45:55;;;;;;;8.67;3.40;;;;;;;30.07;33.81;96631.97;2065680;28;20424;-61
2023/05/28 12:46:57;;;;;;;10.03;4.30;;;;;;;29.39;34.54;96626.84;2065440;28;20967;-61
2023/05/28 12:47:58;;;;;;;11.37;4.63;;;;;;;28.16;35.81;96632.44;2066203;28;20891;-61
2023/05/28 12:49:00;;;;;;;8.80;4.17;;;;;;;27.52;36.49;96629.97;2066811;28;20464;-61
2023/05/28 12:50:02;;;;;;;13.70;4.67;;;;;;;27.29;38.26;96636.06;2067097;28;20563;-61
2023/05/28 12:51:03;;;;;;;12.70;4.80;;;;;;;28.51;37.13;96629.28;2066791;28;20435;-61